Share

المنامة, البحرين

Bahrain International (OBBI) Elev 7 ft | 26.27 °N, 50.63 °E | Change Station

Current weather conditions updated 18 minutes ago

Clear
صافية
88 °F
Feels Like 86 °F
N
23
ريح متغير ريح from NW
شروق الشمس 5:09 AM
غروب الشمس 6:03 PM
قمر الأحدب الأخير

Tomorrow is forecast to be Cooler than today.

الضغط 29.74 في
وضوح الرؤية -9999.0 أميال
سحابات
مؤشر الحرارة 86 °F
نقطة الندى 54 °F
الرطوبة 31%
Rainfall 0.00 في
عمق الثلج Not available.
الأشعة فوق البنفسجية Not available.
Pollen Not available.
جودة الهواء Not available.
Flu Activity Not available.
METAR OBBI 201300Z 31020KT CAVOK 31/12 Q1007 NOSIG

More Conditions Fewer Conditions

الضغط 29.74 في
وضوح الرؤية -9999.0 أميال
سحابات
مؤشر الحرارة 86 °F
نقطة الندى 54 °F
الرطوبة 31%
Rainfall 0.00 في
عمق الثلج Not available.
الأشعة فوق البنفسجية Not available.
Pollen Not available.
جودة الهواء Not available.
Flu Activity Not available.
METAR OBBI 201300Z 31020KT CAVOK 31/12 Q1007 NOSIG

More Conditions Fewer Conditions

10-Day Weather Forecast

Almanac

علم الفلك

Apr. 20, 2014 Rise Set
Actual Time 5:09 AM AST 6:03 PM AST
Civil Twilight 4:45 AM AST 6:27 PM AST
Nautical Twilight 4:17 AM AST 6:55 PM AST
Astronomical Twilight 3:49 AM AST 7:24 PM AST
قمر 11:05 PM AST 9:17 AM AST
Length Of Visible Light 13h 41m
طول الیوم
12h 53m
Tomorrow will be 1m 25s longer.
الأحدب الأخير, 70% of the Moon is Illuminated
هذا اليوم
الأحدب الأخير
Apr 22
الربع الآخر
Apr 29
New
May 6
الربع الاول
May 14
بدر

Yesterday's Extremes

Country Highs Country Lows

Community

  • Happy Easter
    Happy Easter
  • EARLY FOGGY MORNING
    EARLY FOGGY MORNING
  • Easter Greetings
    Easter Greetings
  • Sunny day at the coast-Cape Arago Lighthouse
    Sunny day at the coast-Cape Arago Lighthouse
  • Cherry Blossoms
    Cherry Blossoms

WunderPhotos

Upload Photos

1,703,199 photos uploaded!

Nearby

جودة الهواء

Not available.

عمق الثلج

Not available.

Coastal Water Temperatures

مكان درجات الحرارة
No Stations Reporting

Earthquake Activity

City Distance Mag. Time & Date
No recent earthquake activity has been reported nearby.
Minimum magnitude displayed is 2.5.

Nearby Weather Stations

There are no personal weather stations in this area.

What do you think?

We're not finished. Please let us know what you like, what you don't like, and what you are still missing.